sensor_id;sensor_type;location;lat;lon;timestamp;temperature;humidity
19397;DHT22;9834;48.076;11.878;2022-08-21T00:00:19;16.20;99.90
19397;DHT22;9834;48.076;11.878;2022-08-21T00:02:49;16.20;99.90
19397;DHT22;9834;48.076;11.878;2022-08-21T00:05:19;16.20;99.90
19397;DHT22;9834;48.076;11.878;2022-08-21T00:07:47;16.20;99.90
19397;DHT22;9834;48.076;11.878;2022-08-21T00:10:14;16.10;99.90
19397;DHT22;9834;48.076;11.878;2022-08-21T00:12:43;16.10;99.90
19397;DHT22;9834;48.076;11.878;2022-08-21T00:15:15;16.10;99.90
19397;DHT22;9834;48.076;11.878;2022-08-21T00:17:42;16.10;99.90
19397;DHT22;9834;48.076;11.878;2022-08-21T00:20:11;16.10;99.90
19397;DHT22;9834;48.076;11.878;2022-08-21T00:22:40;16.10;99.90
19397;DHT22;9834;48.076;11.878;2022-08-21T00:25:08;16.10;99.90
19397;DHT22;9834;48.076;11.878;2022-08-21T00:27:36;16.10;99.90
19397;DHT22;9834;48.076;11.878;2022-08-21T00:30:05;16.00;99.90
19397;DHT22;9834;48.076;11.878;2022-08-21T00:32:33;16.00;99.90
19397;DHT22;9834;48.076;11.878;2022-08-21T00:35:00;16.00;99.90
19397;DHT22;9834;48.076;11.878;2022-08-21T00:37:27;15.90;99.90
19397;DHT22;9834;48.076;11.878;2022-08-21T00:39:55;15.90;99.90
19397;DHT22;9834;48.076;11.878;2022-08-21T00:42:23;15.90;99.90
19397;DHT22;9834;48.076;11.878;2022-08-21T00:44:50;15.90;99.90
19397;DHT22;9834;48.076;11.878;2022-08-21T00:47:18;16.00;99.90
19397;DHT22;9834;48.076;11.878;2022-08-21T00:49:46;16.00;99.90
19397;DHT22;9834;48.076;11.878;2022-08-21T00:52:17;16.00;99.90
19397;DHT22;9834;48.076;11.878;2022-08-21T00:54:49;15.90;99.90
19397;DHT22;9834;48.076;11.878;2022-08-21T00:57:22;15.90;99.90
19397;DHT22;9834;48.076;11.878;2022-08-21T00:59:52;15.90;99.90
19397;DHT22;9834;48.076;11.878;2022-08-21T01:02:21;15.80;99.90
19397;DHT22;9834;48.076;11.878;2022-08-21T01:04:48;15.80;99.90
19397;DHT22;9834;48.076;11.878;2022-08-21T01:07:16;15.70;99.90
19397;DHT22;9834;48.076;11.878;2022-08-21T01:09:46;15.60;99.90
19397;DHT22;9834;48.076;11.878;2022-08-21T01:12:13;15.60;99.90
19397;DHT22;9834;48.076;11.878;2022-08-21T01:14:44;15.50;99.90
19397;DHT22;9834;48.076;11.878;2022-08-21T01:17:13;15.50;99.90
19397;DHT22;9834;48.076;11.878;2022-08-21T01:19:41;15.50;99.90
19397;DHT22;9834;48.076;11.878;2022-08-21T01:22:10;15.50;99.90
19397;DHT22;9834;48.076;11.878;2022-08-21T01:24:37;15.50;99.90
19397;DHT22;9834;48.076;11.878;2022-08-21T01:27:04;15.40;99.90
19397;DHT22;9834;48.076;11.878;2022-08-21T01:29:36;15.40;99.90
19397;DHT22;9834;48.076;11.878;2022-08-21T01:32:07;15.50;99.90
19397;DHT22;9834;48.076;11.878;2022-08-21T01:34:37;15.40;99.90
19397;DHT22;9834;48.076;11.878;2022-08-21T01:37:05;15.40;99.90
19397;DHT22;9834;48.076;11.878;2022-08-21T01:39:35;15.40;99.90
19397;DHT22;9834;48.076;11.878;2022-08-21T01:42:03;15.40;99.90
19397;DHT22;9834;48.076;11.878;2022-08-21T01:44:31;15.40;99.90
19397;DHT22;9834;48.076;11.878;2022-08-21T01:47:00;15.40;99.90
19397;DHT22;9834;48.076;11.878;2022-08-21T01:49:27;15.30;99.90
19397;DHT22;9834;48.076;11.878;2022-08-21T01:51:55;15.30;99.90
19397;DHT22;9834;48.076;11.878;2022-08-21T01:54:22;15.30;99.90
19397;DHT22;9834;48.076;11.878;2022-08-21T01:56:52;15.30;99.90
19397;DHT22;9834;48.076;11.878;2022-08-21T01:59:20;15.30;99.90
19397;DHT22;9834;48.076;11.878;2022-08-21T02:01:48;15.30;99.90
19397;DHT22;9834;48.076;11.878;2022-08-21T02:04:15;15.30;99.90
19397;DHT22;9834;48.076;11.878;2022-08-21T02:06:43;15.30;99.90
19397;DHT22;9834;48.076;11.878;2022-08-21T02:09:11;15.20;99.90
19397;DHT22;9834;48.076;11.878;2022-08-21T02:11:39;15.30;99.90
19397;DHT22;9834;48.076;11.878;2022-08-21T02:14:08;15.20;99.90
19397;DHT22;9834;48.076;11.878;2022-08-21T02:16:37;15.20;99.90
19397;DHT22;9834;48.076;11.878;2022-08-21T02:19:04;15.20;99.90
19397;DHT22;9834;48.076;11.878;2022-08-21T02:21:31;15.20;99.90
19397;DHT22;9834;48.076;11.878;2022-08-21T02:23:58;15.20;99.90
19397;DHT22;9834;48.076;11.878;2022-08-21T02:26:26;15.20;99.90
19397;DHT22;9834;48.076;11.878;2022-08-21T02:28:53;15.10;99.90
19397;DHT22;9834;48.076;11.878;2022-08-21T02:31:21;15.10;99.90
19397;DHT22;9834;48.076;11.878;2022-08-21T02:33:48;15.00;99.90
19397;DHT22;9834;48.076;11.878;2022-08-21T02:36:15;15.00;99.90
19397;DHT22;9834;48.076;11.878;2022-08-21T02:38:43;15.00;99.90
19397;DHT22;9834;48.076;11.878;2022-08-21T02:41:12;15.00;99.90
19397;DHT22;9834;48.076;11.878;2022-08-21T02:43:40;14.90;99.90
19397;DHT22;9834;48.076;11.878;2022-08-21T02:46:08;14.90;99.90
19397;DHT22;9834;48.076;11.878;2022-08-21T02:48:38;14.90;99.90
19397;DHT22;9834;48.076;11.878;2022-08-21T02:51:07;14.90;99.90
19397;DHT22;9834;48.076;11.878;2022-08-21T02:53:34;14.80;99.90
19397;DHT22;9834;48.076;11.878;2022-08-21T02:56:04;14.80;99.90
19397;DHT22;9834;48.076;11.878;2022-08-21T02:58:34;14.80;99.90
19397;DHT22;9834;48.076;11.878;2022-08-21T03:01:02;14.80;99.90
19397;DHT22;9834;48.076;11.878;2022-08-21T03:03:29;14.70;99.90
19397;DHT22;9834;48.076;11.878;2022-08-21T03:05:57;14.70;99.90
19397;DHT22;9834;48.076;11.878;2022-08-21T03:08:24;14.60;99.90
19397;DHT22;9834;48.076;11.878;2022-08-21T03:10:52;14.60;99.90
19397;DHT22;9834;48.076;11.878;2022-08-21T03:13:20;14.60;99.90
19397;DHT22;9834;48.076;11.878;2022-08-21T03:15:48;14.60;99.90
19397;DHT22;9834;48.076;11.878;2022-08-21T03:18:15;14.60;99.90
19397;DHT22;9834;48.076;11.878;2022-08-21T03:20:43;14.60;99.90
19397;DHT22;9834;48.076;11.878;2022-08-21T03:23:15;14.50;99.90
19397;DHT22;9834;48.076;11.878;2022-08-21T03:25:43;14.50;99.90
19397;DHT22;9834;48.076;11.878;2022-08-21T03:28:13;14.40;99.90
19397;DHT22;9834;48.076;11.878;2022-08-21T03:30:41;14.40;99.90
19397;DHT22;9834;48.076;11.878;2022-08-21T03:33:08;14.40;99.90
19397;DHT22;9834;48.076;11.878;2022-08-21T03:35:35;14.40;99.90
19397;DHT22;9834;48.076;11.878;2022-08-21T03:38:02;14.30;99.90
19397;DHT22;9834;48.076;11.878;2022-08-21T03:40:31;14.30;99.90
19397;DHT22;9834;48.076;11.878;2022-08-21T03:43:01;14.20;99.90
19397;DHT22;9834;48.076;11.878;2022-08-21T03:45:28;14.20;99.90
19397;DHT22;9834;48.076;11.878;2022-08-21T03:47:57;14.20;99.90
19397;DHT22;9834;48.076;11.878;2022-08-21T03:50:26;14.30;99.90
19397;DHT22;9834;48.076;11.878;2022-08-21T03:52:53;14.20;99.90
19397;DHT22;9834;48.076;11.878;2022-08-21T03:55:20;14.20;99.90
19397;DHT22;9834;48.076;11.878;2022-08-21T03:57:48;14.10;99.90
19397;DHT22;9834;48.076;11.878;2022-08-21T04:00:19;14.10;99.90
19397;DHT22;9834;48.076;11.878;2022-08-21T04:02:50;14.20;99.90
19397;DHT22;9834;48.076;11.878;2022-08-21T04:05:19;14.10;99.90
19397;DHT22;9834;48.076;11.878;2022-08-21T04:07:54;14.10;99.90
19397;DHT22;9834;48.076;11.878;2022-08-21T04:10:22;14.10;99.90
19397;DHT22;9834;48.076;11.878;2022-08-21T04:12:52;14.00;99.90
19397;DHT22;9834;48.076;11.878;2022-08-21T04:15:20;14.10;99.90
19397;DHT22;9834;48.076;11.878;2022-08-21T04:17:47;14.00;99.90
19397;DHT22;9834;48.076;11.878;2022-08-21T04:20:17;14.00;99.90
19397;DHT22;9834;48.076;11.878;2022-08-21T04:22:44;14.00;99.90
19397;DHT22;9834;48.076;11.878;2022-08-21T04:25:15;14.10;99.90
19397;DHT22;9834;48.076;11.878;2022-08-21T04:27:43;14.10;99.90
19397;DHT22;9834;48.076;11.878;2022-08-21T04:30:14;14.00;99.90
19397;DHT22;9834;48.076;11.878;2022-08-21T04:32:43;14.00;99.90
19397;DHT22;9834;48.076;11.878;2022-08-21T04:35:11;14.10;99.90
19397;DHT22;9834;48.076;11.878;2022-08-21T04:37:38;14.00;99.90
19397;DHT22;9834;48.076;11.878;2022-08-21T04:40:07;14.10;99.90
19397;DHT22;9834;48.076;11.878;2022-08-21T04:42:41;14.00;99.90
19397;DHT22;9834;48.076;11.878;2022-08-21T04:45:18;14.00;99.90
19397;DHT22;9834;48.076;11.878;2022-08-21T04:47:48;14.10;99.90
19397;DHT22;9834;48.076;11.878;2022-08-21T04:50:16;14.10;99.90
19397;DHT22;9834;48.076;11.878;2022-08-21T04:52:45;14.10;99.90
19397;DHT22;9834;48.076;11.878;2022-08-21T04:55:13;14.10;99.90
19397;DHT22;9834;48.076;11.878;2022-08-21T04:57:42;14.20;99.90
19397;DHT22;9834;48.076;11.878;2022-08-21T05:00:12;14.20;99.90
19397;DHT22;9834;48.076;11.878;2022-08-21T05:02:40;14.20;99.90
19397;DHT22;9834;48.076;11.878;2022-08-21T05:05:10;14.20;99.90
19397;DHT22;9834;48.076;11.878;2022-08-21T05:07:37;14.20;99.90
19397;DHT22;9834;48.076;11.878;2022-08-21T05:10:05;14.30;99.90
19397;DHT22;9834;48.076;11.878;2022-08-21T05:12:35;14.30;99.90
19397;DHT22;9834;48.076;11.878;2022-08-21T05:15:03;14.40;99.90
19397;DHT22;9834;48.076;11.878;2022-08-21T05:17:32;14.40;99.90
19397;DHT22;9834;48.076;11.878;2022-08-21T05:19:59;14.50;99.90
19397;DHT22;9834;48.076;11.878;2022-08-21T05:22:27;14.60;99.90
19397;DHT22;9834;48.076;11.878;2022-08-21T05:24:54;14.70;99.90
19397;DHT22;9834;48.076;11.878;2022-08-21T05:27:21;14.70;99.90
19397;DHT22;9834;48.076;11.878;2022-08-21T05:29:48;14.80;99.90
19397;DHT22;9834;48.076;11.878;2022-08-21T05:32:15;14.90;99.90
19397;DHT22;9834;48.076;11.878;2022-08-21T05:34:44;15.00;99.90
19397;DHT22;9834;48.076;11.878;2022-08-21T05:37:12;15.00;99.90
19397;DHT22;9834;48.076;11.878;2022-08-21T05:39:40;15.10;99.90
19397;DHT22;9834;48.076;11.878;2022-08-21T05:42:07;15.20;99.90
19397;DHT22;9834;48.076;11.878;2022-08-21T05:44:34;15.20;99.90
19397;DHT22;9834;48.076;11.878;2022-08-21T05:47:06;15.20;99.90
19397;DHT22;9834;48.076;11.878;2022-08-21T05:49:34;15.30;99.90
19397;DHT22;9834;48.076;11.878;2022-08-21T05:52:05;15.30;99.90
19397;DHT22;9834;48.076;11.878;2022-08-21T05:54:32;15.40;99.90
19397;DHT22;9834;48.076;11.878;2022-08-21T05:57:01;15.40;99.90
19397;DHT22;9834;48.076;11.878;2022-08-21T05:59:28;15.40;99.90
19397;DHT22;9834;48.076;11.878;2022-08-21T06:01:56;15.50;99.90
19397;DHT22;9834;48.076;11.878;2022-08-21T06:04:23;15.60;99.90
19397;DHT22;9834;48.076;11.878;2022-08-21T06:06:52;15.70;99.90
19397;DHT22;9834;48.076;11.878;2022-08-21T06:09:20;15.70;99.90
19397;DHT22;9834;48.076;11.878;2022-08-21T06:11:47;15.80;99.90
19397;DHT22;9834;48.076;11.878;2022-08-21T06:14:15;15.80;99.90
19397;DHT22;9834;48.076;11.878;2022-08-21T06:16:42;15.90;99.90
19397;DHT22;9834;48.076;11.878;2022-08-21T06:19:13;15.90;99.90
19397;DHT22;9834;48.076;11.878;2022-08-21T06:21:47;16.00;99.90
19397;DHT22;9834;48.076;11.878;2022-08-21T06:24:14;16.00;99.90
19397;DHT22;9834;48.076;11.878;2022-08-21T06:26:42;16.10;99.90
19397;DHT22;9834;48.076;11.878;2022-08-21T06:29:10;16.20;99.90
19397;DHT22;9834;48.076;11.878;2022-08-21T06:31:42;16.20;99.90
19397;DHT22;9834;48.076;11.878;2022-08-21T06:34:09;16.20;99.90
19397;DHT22;9834;48.076;11.878;2022-08-21T06:36:36;16.20;99.90
19397;DHT22;9834;48.076;11.878;2022-08-21T06:39:05;16.30;99.90
19397;DHT22;9834;48.076;11.878;2022-08-21T06:41:35;16.30;99.90
19397;DHT22;9834;48.076;11.878;2022-08-21T06:44:05;16.30;99.90
19397;DHT22;9834;48.076;11.878;2022-08-21T06:46:32;16.30;99.90
19397;DHT22;9834;48.076;11.878;2022-08-21T06:48:59;16.40;99.90
19397;DHT22;9834;48.076;11.878;2022-08-21T06:51:27;16.40;99.90
19397;DHT22;9834;48.076;11.878;2022-08-21T06:53:57;16.40;99.90
19397;DHT22;9834;48.076;11.878;2022-08-21T06:56:24;16.50;99.90
19397;DHT22;9834;48.076;11.878;2022-08-21T06:58:52;16.50;99.90
19397;DHT22;9834;48.076;11.878;2022-08-21T07:01:25;16.60;99.90
19397;DHT22;9834;48.076;11.878;2022-08-21T07:03:52;16.60;99.90
19397;DHT22;9834;48.076;11.878;2022-08-21T07:06:19;16.60;99.90
19397;DHT22;9834;48.076;11.878;2022-08-21T07:08:46;16.60;99.90
19397;DHT22;9834;48.076;11.878;2022-08-21T07:11:19;16.60;99.90
19397;DHT22;9834;48.076;11.878;2022-08-21T07:13:48;16.70;99.90
19397;DHT22;9834;48.076;11.878;2022-08-21T07:16:16;16.70;99.90
19397;DHT22;9834;48.076;11.878;2022-08-21T07:18:45;16.70;99.90
19397;DHT22;9834;48.076;11.878;2022-08-21T07:21:12;16.70;99.90
19397;DHT22;9834;48.076;11.878;2022-08-21T07:23:41;16.70;99.90
19397;DHT22;9834;48.076;11.878;2022-08-21T07:26:08;16.70;99.90
19397;DHT22;9834;48.076;11.878;2022-08-21T07:28:36;16.70;99.90
19397;DHT22;9834;48.076;11.878;2022-08-21T07:31:04;16.80;99.90
19397;DHT22;9834;48.076;11.878;2022-08-21T07:33:34;16.80;99.90
19397;DHT22;9834;48.076;11.878;2022-08-21T07:36:03;16.90;99.90
19397;DHT22;9834;48.076;11.878;2022-08-21T07:38:33;16.90;99.90
19397;DHT22;9834;48.076;11.878;2022-08-21T07:41:01;16.90;99.90
19397;DHT22;9834;48.076;11.878;2022-08-21T07:47:11;17.00;99.90
19397;DHT22;9834;48.076;11.878;2022-08-21T07:49:38;17.10;99.90
19397;DHT22;9834;48.076;11.878;2022-08-21T07:52:06;17.00;99.90
19397;DHT22;9834;48.076;11.878;2022-08-21T07:54:34;17.10;99.90
19397;DHT22;9834;48.076;11.878;2022-08-21T07:57:04;17.10;99.90
19397;DHT22;9834;48.076;11.878;2022-08-21T07:59:31;17.20;99.90
19397;DHT22;9834;48.076;11.878;2022-08-21T08:01:58;17.20;99.90
19397;DHT22;9834;48.076;11.878;2022-08-21T08:04:26;17.30;99.90
19397;DHT22;9834;48.076;11.878;2022-08-21T08:06:53;17.30;99.90
19397;DHT22;9834;48.076;11.878;2022-08-21T08:09:21;17.40;99.90
19397;DHT22;9834;48.076;11.878;2022-08-21T08:11:49;17.50;99.90
19397;DHT22;9834;48.076;11.878;2022-08-21T08:14:16;17.80;99.90
19397;DHT22;9834;48.076;11.878;2022-08-21T08:16:43;18.00;99.90
19397;DHT22;9834;48.076;11.878;2022-08-21T08:19:10;18.10;99.90
19397;DHT22;9834;48.076;11.878;2022-08-21T08:21:37;18.30;99.90
19397;DHT22;9834;48.076;11.878;2022-08-21T08:24:04;18.40;99.90
19397;DHT22;9834;48.076;11.878;2022-08-21T08:26:33;18.50;99.90
19397;DHT22;9834;48.076;11.878;2022-08-21T08:29:00;18.60;99.90
19397;DHT22;9834;48.076;11.878;2022-08-21T08:31:29;18.70;99.90
19397;DHT22;9834;48.076;11.878;2022-08-21T08:33:57;18.80;99.90
19397;DHT22;9834;48.076;11.878;2022-08-21T08:36:32;19.00;99.90
19397;DHT22;9834;48.076;11.878;2022-08-21T08:39:00;19.10;99.90
19397;DHT22;9834;48.076;11.878;2022-08-21T08:41:28;19.30;99.90
19397;DHT22;9834;48.076;11.878;2022-08-21T08:44:00;19.40;99.90
19397;DHT22;9834;48.076;11.878;2022-08-21T08:46:31;19.60;99.90
19397;DHT22;9834;48.076;11.878;2022-08-21T08:49:03;19.60;99.90
19397;DHT22;9834;48.076;11.878;2022-08-21T08:51:39;19.70;99.90
19397;DHT22;9834;48.076;11.878;2022-08-21T08:54:10;19.80;99.90
19397;DHT22;9834;48.076;11.878;2022-08-21T08:56:41;19.90;99.90
19397;DHT22;9834;48.076;11.878;2022-08-21T08:59:15;20.10;99.90
19397;DHT22;9834;48.076;11.878;2022-08-21T09:01:42;20.00;99.90
19397;DHT22;9834;48.076;11.878;2022-08-21T09:04:10;20.20;99.90
19397;DHT22;9834;48.076;11.878;2022-08-21T09:06:57;20.20;99.90
19397;DHT22;9834;48.076;11.878;2022-08-21T09:09:38;20.30;99.90
19397;DHT22;9834;48.076;11.878;2022-08-21T09:12:15;20.40;99.90
19397;DHT22;9834;48.076;11.878;2022-08-21T09:14:54;20.40;99.90
19397;DHT22;9834;48.076;11.878;2022-08-21T09:17:39;20.40;99.90
19397;DHT22;9834;48.076;11.878;2022-08-21T09:20:19;20.50;99.90
19397;DHT22;9834;48.076;11.878;2022-08-21T09:23:01;20.70;99.90
19397;DHT22;9834;48.076;11.878;2022-08-21T09:25:33;20.80;99.90
19397;DHT22;9834;48.076;11.878;2022-08-21T09:28:01;20.90;99.90
19397;DHT22;9834;48.076;11.878;2022-08-21T09:30:31;21.00;99.90
19397;DHT22;9834;48.076;11.878;2022-08-21T09:32:59;21.20;99.90
19397;DHT22;9834;48.076;11.878;2022-08-21T09:35:26;21.10;99.90
19397;DHT22;9834;48.076;11.878;2022-08-21T09:37:55;21.30;99.90
19397;DHT22;9834;48.076;11.878;2022-08-21T09:40:37;21.40;99.90
19397;DHT22;9834;48.076;11.878;2022-08-21T09:43:06;21.70;99.90
19397;DHT22;9834;48.076;11.878;2022-08-21T09:45:35;21.80;99.90
19397;DHT22;9834;48.076;11.878;2022-08-21T09:51:26;22.30;99.60
19397;DHT22;9834;48.076;11.878;2022-08-21T09:53:58;22.50;99.10
19397;DHT22;9834;48.076;11.878;2022-08-21T09:56:29;22.60;97.70
19397;DHT22;9834;48.076;11.878;2022-08-21T09:59:18;22.40;98.40
19397;DHT22;9834;48.076;11.878;2022-08-21T10:01:49;22.20;97.20
19397;DHT22;9834;48.076;11.878;2022-08-21T10:04:21;21.90;96.80
19397;DHT22;9834;48.076;11.878;2022-08-21T10:06:49;21.80;96.70
19397;DHT22;9834;48.076;11.878;2022-08-21T10:09:17;22.20;96.20
19397;DHT22;9834;48.076;11.878;2022-08-21T10:11:52;22.70;95.40
19397;DHT22;9834;48.076;11.878;2022-08-21T10:14:33;23.30;93.90
19397;DHT22;9834;48.076;11.878;2022-08-21T10:17:14;24.00;90.50
19397;DHT22;9834;48.076;11.878;2022-08-21T10:19:49;24.70;90.60
19397;DHT22;9834;48.076;11.878;2022-08-21T10:22:26;24.50;86.50
19397;DHT22;9834;48.076;11.878;2022-08-21T10:25:05;24.50;89.80
19397;DHT22;9834;48.076;11.878;2022-08-21T10:27:37;25.10;86.60
19397;DHT22;9834;48.076;11.878;2022-08-21T10:30:12;25.00;83.30
19397;DHT22;9834;48.076;11.878;2022-08-21T10:32:53;24.60;82.80
19397;DHT22;9834;48.076;11.878;2022-08-21T10:35:26;24.00;85.50
19397;DHT22;9834;48.076;11.878;2022-08-21T10:40:57;23.40;86.30
19397;DHT22;9834;48.076;11.878;2022-08-21T10:43:34;23.40;88.00
19397;DHT22;9834;48.076;11.878;2022-08-21T10:46:20;24.30;91.00
19397;DHT22;9834;48.076;11.878;2022-08-21T10:48:53;25.70;88.10
19397;DHT22;9834;48.076;11.878;2022-08-21T10:51:32;26.30;79.10
19397;DHT22;9834;48.076;11.878;2022-08-21T10:54:07;26.50;77.50
19397;DHT22;9834;48.076;11.878;2022-08-21T10:56:41;27.00;76.10
19397;DHT22;9834;48.076;11.878;2022-08-21T10:59:23;27.70;78.90
19397;DHT22;9834;48.076;11.878;2022-08-21T11:01:57;28.30;67.40
19397;DHT22;9834;48.076;11.878;2022-08-21T11:04:31;29.00;65.20
19397;DHT22;9834;48.076;11.878;2022-08-21T11:07:03;29.20;62.90
19397;DHT22;9834;48.076;11.878;2022-08-21T11:09:32;29.60;60.20
19397;DHT22;9834;48.076;11.878;2022-08-21T11:12:05;30.40;63.20
19397;DHT22;9834;48.076;11.878;2022-08-21T11:14:39;31.80;63.80
19397;DHT22;9834;48.076;11.878;2022-08-21T11:17:13;32.50;50.90
19397;DHT22;9834;48.076;11.878;2022-08-21T11:19:47;30.40;52.20
19397;DHT22;9834;48.076;11.878;2022-08-21T11:22:18;28.70;55.00
19397;DHT22;9834;48.076;11.878;2022-08-21T11:24:52;27.70;58.80
19397;DHT22;9834;48.076;11.878;2022-08-21T11:27:26;26.80;59.20
19397;DHT22;9834;48.076;11.878;2022-08-21T11:29:55;26.00;69.40
19397;DHT22;9834;48.076;11.878;2022-08-21T11:32:42;25.30;70.80
19397;DHT22;9834;48.076;11.878;2022-08-21T11:35:20;24.70;75.10
19397;DHT22;9834;48.076;11.878;2022-08-21T11:38:04;24.50;73.60
19397;DHT22;9834;48.076;11.878;2022-08-21T11:40:44;24.90;79.90
19397;DHT22;9834;48.076;11.878;2022-08-21T11:43:20;27.10;73.30
19397;DHT22;9834;48.076;11.878;2022-08-21T11:45:53;29.30;66.90
19397;DHT22;9834;48.076;11.878;2022-08-21T11:48:34;30.80;65.90
19397;DHT22;9834;48.076;11.878;2022-08-21T11:51:09;31.80;58.70
19397;DHT22;9834;48.076;11.878;2022-08-21T11:53:42;32.70;55.30
19397;DHT22;9834;48.076;11.878;2022-08-21T11:56:19;33.50;54.30
19397;DHT22;9834;48.076;11.878;2022-08-21T11:58:51;34.70;50.30
19397;DHT22;9834;48.076;11.878;2022-08-21T12:01:21;34.50;49.80
19397;DHT22;9834;48.076;11.878;2022-08-21T12:03:54;34.50;50.30
19397;DHT22;9834;48.076;11.878;2022-08-21T12:06:30;34.40;50.00
19397;DHT22;9834;48.076;11.878;2022-08-21T12:09:01;33.70;46.00
19397;DHT22;9834;48.076;11.878;2022-08-21T12:11:28;31.80;49.70
19397;DHT22;9834;48.076;11.878;2022-08-21T12:13:58;29.90;52.30
19397;DHT22;9834;48.076;11.878;2022-08-21T12:16:31;28.80;54.30
19397;DHT22;9834;48.076;11.878;2022-08-21T12:19:05;29.50;54.90
19397;DHT22;9834;48.076;11.878;2022-08-21T12:21:48;30.00;54.20
19397;DHT22;9834;48.076;11.878;2022-08-21T12:24:18;29.10;55.30
19397;DHT22;9834;48.076;11.878;2022-08-21T12:26:51;28.30;58.70
19397;DHT22;9834;48.076;11.878;2022-08-21T12:29:25;27.60;60.10
19397;DHT22;9834;48.076;11.878;2022-08-21T12:31:56;27.70;59.70
19397;DHT22;9834;48.076;11.878;2022-08-21T12:34:35;28.00;60.40
19397;DHT22;9834;48.076;11.878;2022-08-21T12:37:07;27.70;60.00
19397;DHT22;9834;48.076;11.878;2022-08-21T12:39:38;27.20;62.30
19397;DHT22;9834;48.076;11.878;2022-08-21T12:42:23;26.90;65.90
19397;DHT22;9834;48.076;11.878;2022-08-21T12:44:55;26.60;67.40
19397;DHT22;9834;48.076;11.878;2022-08-21T12:47:27;26.50;65.40
19397;DHT22;9834;48.076;11.878;2022-08-21T12:50:02;26.40;67.50
19397;DHT22;9834;48.076;11.878;2022-08-21T12:52:34;26.20;67.10
19397;DHT22;9834;48.076;11.878;2022-08-21T12:55:04;25.60;68.70
19397;DHT22;9834;48.076;11.878;2022-08-21T12:57:31;25.20;70.40
19397;DHT22;9834;48.076;11.878;2022-08-21T13:00:00;24.70;71.80
19397;DHT22;9834;48.076;11.878;2022-08-21T13:02:31;24.80;72.20
19397;DHT22;9834;48.076;11.878;2022-08-21T13:05:02;26.70;73.20
19397;DHT22;9834;48.076;11.878;2022-08-21T13:07:33;29.80;60.40
19397;DHT22;9834;48.076;11.878;2022-08-21T13:10:04;31.00;56.20
19397;DHT22;9834;48.076;11.878;2022-08-21T13:12:35;30.40;54.20
19397;DHT22;9834;48.076;11.878;2022-08-21T13:15:04;30.70;56.30
19397;DHT22;9834;48.076;11.878;2022-08-21T13:17:35;30.30;54.00
19397;DHT22;9834;48.076;11.878;2022-08-21T13:20:08;29.00;55.10
19397;DHT22;9834;48.076;11.878;2022-08-21T13:22:42;28.50;61.70
19397;DHT22;9834;48.076;11.878;2022-08-21T13:25:12;31.10;55.70
19397;DHT22;9834;48.076;11.878;2022-08-21T13:27:41;33.50;50.00
19397;DHT22;9834;48.076;11.878;2022-08-21T13:30:11;36.00;44.60
19397;DHT22;9834;48.076;11.878;2022-08-21T13:32:42;37.40;42.30
19397;DHT22;9834;48.076;11.878;2022-08-21T13:35:12;38.80;41.90
19397;DHT22;9834;48.076;11.878;2022-08-21T13:37:43;39.10;38.00
19397;DHT22;9834;48.076;11.878;2022-08-21T13:40:14;39.90;37.00
19397;DHT22;9834;48.076;11.878;2022-08-21T13:42:43;39.80;36.70
19397;DHT22;9834;48.076;11.878;2022-08-21T13:45:18;38.20;38.20
19397;DHT22;9834;48.076;11.878;2022-08-21T13:47:46;36.60;42.20
19397;DHT22;9834;48.076;11.878;2022-08-21T13:50:16;37.50;39.90
19397;DHT22;9834;48.076;11.878;2022-08-21T13:52:57;38.40;38.50
19397;DHT22;9834;48.076;11.878;2022-08-21T13:55:25;38.70;38.30
19397;DHT22;9834;48.076;11.878;2022-08-21T13:58:01;39.40;35.60
19397;DHT22;9834;48.076;11.878;2022-08-21T14:00:30;37.90;37.90
19397;DHT22;9834;48.076;11.878;2022-08-21T14:03:04;34.90;39.20
19397;DHT22;9834;48.076;11.878;2022-08-21T14:05:34;32.00;45.80
19397;DHT22;9834;48.076;11.878;2022-08-21T14:08:08;30.10;50.10
19397;DHT22;9834;48.076;11.878;2022-08-21T14:10:42;29.20;52.80
19397;DHT22;9834;48.076;11.878;2022-08-21T14:13:26;30.90;49.20
19397;DHT22;9834;48.076;11.878;2022-08-21T14:15:56;34.00;42.40
19397;DHT22;9834;48.076;11.878;2022-08-21T14:18:29;35.40;38.90
19397;DHT22;9834;48.076;11.878;2022-08-21T14:21:04;35.80;37.90
19397;DHT22;9834;48.076;11.878;2022-08-21T14:23:33;35.90;38.10
19397;DHT22;9834;48.076;11.878;2022-08-21T14:26:04;37.10;36.30
19397;DHT22;9834;48.076;11.878;2022-08-21T14:28:33;38.00;37.30
19397;DHT22;9834;48.076;11.878;2022-08-21T14:31:13;38.50;37.00
19397;DHT22;9834;48.076;11.878;2022-08-21T14:33:41;39.00;38.70
19397;DHT22;9834;48.076;11.878;2022-08-21T14:36:11;39.10;38.00
19397;DHT22;9834;48.076;11.878;2022-08-21T14:38:41;38.90;37.40
19397;DHT22;9834;48.076;11.878;2022-08-21T14:41:15;38.90;36.50
19397;DHT22;9834;48.076;11.878;2022-08-21T14:43:45;38.50;37.50
19397;DHT22;9834;48.076;11.878;2022-08-21T14:46:21;38.30;38.00
19397;DHT22;9834;48.076;11.878;2022-08-21T14:48:48;36.70;37.80
19397;DHT22;9834;48.076;11.878;2022-08-21T14:51:16;33.90;42.00
19397;DHT22;9834;48.076;11.878;2022-08-21T14:53:46;31.40;46.20
19397;DHT22;9834;48.076;11.878;2022-08-21T14:56:13;30.00;51.00
19397;DHT22;9834;48.076;11.878;2022-08-21T14:58:42;29.40;51.10
19397;DHT22;9834;48.076;11.878;2022-08-21T15:01:12;29.50;52.00
19397;DHT22;9834;48.076;11.878;2022-08-21T15:03:40;32.30;47.80
19397;DHT22;9834;48.076;11.878;2022-08-21T15:06:10;34.50;41.60
19397;DHT22;9834;48.076;11.878;2022-08-21T15:08:38;35.40;40.50
19397;DHT22;9834;48.076;11.878;2022-08-21T15:11:09;35.50;40.60
19397;DHT22;9834;48.076;11.878;2022-08-21T15:13:38;34.50;42.90
19397;DHT22;9834;48.076;11.878;2022-08-21T15:16:05;34.40;42.60
19397;DHT22;9834;48.076;11.878;2022-08-21T15:18:35;33.40;43.50
19397;DHT22;9834;48.076;11.878;2022-08-21T15:21:02;32.00;48.30
19397;DHT22;9834;48.076;11.878;2022-08-21T15:23:29;33.10;46.70
19397;DHT22;9834;48.076;11.878;2022-08-21T15:25:56;35.40;40.70
19397;DHT22;9834;48.076;11.878;2022-08-21T15:28:25;37.30;39.00
19397;DHT22;9834;48.076;11.878;2022-08-21T15:30:54;37.20;37.00
19397;DHT22;9834;48.076;11.878;2022-08-21T15:33:22;35.50;38.80
19397;DHT22;9834;48.076;11.878;2022-08-21T15:35:55;35.30;38.50
19397;DHT22;9834;48.076;11.878;2022-08-21T15:38:22;35.30;39.20
19397;DHT22;9834;48.076;11.878;2022-08-21T15:40:49;36.00;38.50
19397;DHT22;9834;48.076;11.878;2022-08-21T15:43:23;37.10;35.80
19397;DHT22;9834;48.076;11.878;2022-08-21T15:45:52;36.70;38.50
19397;DHT22;9834;48.076;11.878;2022-08-21T15:48:23;36.00;37.70
19397;DHT22;9834;48.076;11.878;2022-08-21T15:50:53;36.50;39.50
19397;DHT22;9834;48.076;11.878;2022-08-21T15:53:20;37.30;38.20
19397;DHT22;9834;48.076;11.878;2022-08-21T15:55:47;38.00;36.60
19397;DHT22;9834;48.076;11.878;2022-08-21T15:58:15;37.70;35.40